Noyabr'sk, Russia
Current Conditions -  °F | °C
As of 4:30 PM on Thursday 23 Oct 2014 (Local Time) from USRR Reporting Station
Scattered Clouds Scattered Clouds  
Wind Chill:   Ceiling: Unl
Heat Index: 10°   Visibility: 4mi
Dew Point:   Wind: 4mph
Humidity: 85%   Direction: 50°NE
Pressure: 29.97"   Gusts: NA
Location:  64.34°N, 76.21°E
Report Text: USRR 231130Z 05002MPS 7000 SCT200 M12/M14 Q1015 NOSIG RMKQFE756 07////60
Loading
Personal Weather Stations






























Interactive Weather Map
Tropical Storm Tracking
New forecast layout! Learn more

10-Day Weather Forecast

Advertisements
Track Severe Weather on mobile